sensor_id;sensor_type;location;lat;lon;timestamp;pressure;altitude;pressure_sealevel;temperature;humidity
80624;BME280;70269;44.768;9.600;2023-08-17T00:02:14;97646.47;;;20.65;74.98
80624;BME280;70269;44.768;9.600;2023-08-17T00:04:40;97647.03;;;20.72;75.40
80624;BME280;70269;44.768;9.600;2023-08-17T00:07:06;97648.41;;;20.65;74.99
80624;BME280;70269;44.768;9.600;2023-08-17T00:09:32;97654.16;;;20.63;75.08
80624;BME280;70269;44.768;9.600;2023-08-17T00:11:58;97654.41;;;20.62;75.75
80624;BME280;70269;44.768;9.600;2023-08-17T00:14:23;97651.97;;;20.65;75.71
80624;BME280;70269;44.768;9.600;2023-08-17T00:16:49;97657.44;;;20.55;76.38
80624;BME280;70269;44.768;9.600;2023-08-17T00:19:15;97661.25;;;20.44;76.44
80624;BME280;70269;44.768;9.600;2023-08-17T00:21:41;97659.88;;;20.41;77.02
80624;BME280;70269;44.768;9.600;2023-08-17T00:24:07;97659.59;;;20.38;77.67
80624;BME280;70269;44.768;9.600;2023-08-17T00:26:33;97665.38;;;20.51;76.76
80624;BME280;70269;44.768;9.600;2023-08-17T00:28:58;97669.78;;;20.47;76.96
80624;BME280;70269;44.768;9.600;2023-08-17T00:31:24;97674.19;;;20.48;77.22
80624;BME280;70269;44.768;9.600;2023-08-17T00:33:49;97675.78;;;20.39;77.71
80624;BME280;70269;44.768;9.600;2023-08-17T00:36:15;97673.06;;;20.44;77.66
80624;BME280;70269;44.768;9.600;2023-08-17T00:38:41;97676.63;;;20.50;77.10
80624;BME280;70269;44.768;9.600;2023-08-17T00:41:06;97673.88;;;20.50;76.89
80624;BME280;70269;44.768;9.600;2023-08-17T00:43:32;97672.78;;;20.41;77.72
80624;BME280;70269;44.768;9.600;2023-08-17T00:45:57;97682.88;;;20.30;78.16
80624;BME280;70269;44.768;9.600;2023-08-17T00:48:23;97672.69;;;20.31;77.50
80624;BME280;70269;44.768;9.600;2023-08-17T00:50:50;97681.22;;;20.29;77.92
80624;BME280;70269;44.768;9.600;2023-08-17T00:53:16;97677.59;;;20.18;78.58
80624;BME280;70269;44.768;9.600;2023-08-17T00:55:43;97666.91;;;20.12;78.65
80624;BME280;70269;44.768;9.600;2023-08-17T00:58:08;97681.16;;;20.09;79.23
80624;BME280;70269;44.768;9.600;2023-08-17T01:00:34;97683.59;;;20.05;78.70
80624;BME280;70269;44.768;9.600;2023-08-17T01:03:01;97674.56;;;20.05;78.97
80624;BME280;70269;44.768;9.600;2023-08-17T01:05:27;97680.00;;;20.00;79.29
80624;BME280;70269;44.768;9.600;2023-08-17T01:07:55;97684.09;;;19.92;78.51
80624;BME280;70269;44.768;9.600;2023-08-17T01:10:20;97687.34;;;19.89;79.28
80624;BME280;70269;44.768;9.600;2023-08-17T01:13:05;97688.19;;;19.90;80.00
80624;BME280;70269;44.768;9.600;2023-08-17T01:15:41;97693.06;;;19.83;80.00
80624;BME280;70269;44.768;9.600;2023-08-17T01:18:35;97694.44;;;19.80;80.49
80624;BME280;70269;44.768;9.600;2023-08-17T01:21:02;97688.13;;;19.74;79.50
80624;BME280;70269;44.768;9.600;2023-08-17T01:23:30;97701.25;;;19.72;79.61
80624;BME280;70269;44.768;9.600;2023-08-17T01:25:56;97699.31;;;19.68;80.08
80624;BME280;70269;44.768;9.600;2023-08-17T01:28:24;97704.81;;;19.68;79.95
80624;BME280;70269;44.768;9.600;2023-08-17T01:30:58;97709.13;;;19.64;80.47
80624;BME280;70269;44.768;9.600;2023-08-17T01:33:29;97705.81;;;19.57;80.84
80624;BME280;70269;44.768;9.600;2023-08-17T01:36:05;97712.66;;;19.54;81.01
80624;BME280;70269;44.768;9.600;2023-08-17T01:38:34;97713.75;;;19.53;80.86
80624;BME280;70269;44.768;9.600;2023-08-17T01:41:02;97706.06;;;19.50;81.23
80624;BME280;70269;44.768;9.600;2023-08-17T01:43:29;97707.16;;;19.49;81.21
80624;BME280;70269;44.768;9.600;2023-08-17T01:45:55;97711.84;;;19.59;80.80
80624;BME280;70269;44.768;9.600;2023-08-17T01:48:21;97705.81;;;19.57;80.99
80624;BME280;70269;44.768;9.600;2023-08-17T01:50:46;97708.28;;;19.58;81.59
80624;BME280;70269;44.768;9.600;2023-08-17T01:53:12;97699.78;;;19.55;81.71
80624;BME280;70269;44.768;9.600;2023-08-17T01:55:38;97704.22;;;19.61;81.72
80624;BME280;70269;44.768;9.600;2023-08-17T01:58:06;97693.47;;;19.54;81.43
80624;BME280;70269;44.768;9.600;2023-08-17T02:00:31;97688.22;;;19.48;81.75
80624;BME280;70269;44.768;9.600;2023-08-17T02:02:56;97692.81;;;19.42;81.76
80624;BME280;70269;44.768;9.600;2023-08-17T02:05:23;97696.34;;;19.37;81.59
80624;BME280;70269;44.768;9.600;2023-08-17T02:07:49;97683.16;;;19.34;82.20
80624;BME280;70269;44.768;9.600;2023-08-17T02:10:15;97678.53;;;19.35;82.42
80624;BME280;70269;44.768;9.600;2023-08-17T02:12:40;97679.94;;;19.37;82.60
80624;BME280;70269;44.768;9.600;2023-08-17T02:15:06;97668.13;;;19.37;82.09
80624;BME280;70269;44.768;9.600;2023-08-17T02:17:32;97677.44;;;19.36;82.63
80624;BME280;70269;44.768;9.600;2023-08-17T02:19:57;97667.53;;;19.30;82.42
80624;BME280;70269;44.768;9.600;2023-08-17T02:22:23;97674.34;;;19.27;82.34
80624;BME280;70269;44.768;9.600;2023-08-17T02:24:48;97658.47;;;19.24;82.45
80624;BME280;70269;44.768;9.600;2023-08-17T02:27:14;97653.75;;;19.20;82.69
80624;BME280;70269;44.768;9.600;2023-08-17T02:29:39;97654.59;;;19.20;82.63
80624;BME280;70269;44.768;9.600;2023-08-17T02:32:05;97648.06;;;19.26;82.85
80624;BME280;70269;44.768;9.600;2023-08-17T02:34:30;97649.81;;;19.43;81.88
80624;BME280;70269;44.768;9.600;2023-08-17T02:36:56;97642.25;;;19.55;81.41
80624;BME280;70269;44.768;9.600;2023-08-17T02:39:21;97643.63;;;19.57;81.55
80624;BME280;70269;44.768;9.600;2023-08-17T02:41:47;97638.44;;;19.61;81.08
80624;BME280;70269;44.768;9.600;2023-08-17T02:44:15;97637.28;;;19.52;81.80
80624;BME280;70269;44.768;9.600;2023-08-17T02:46:41;97629.25;;;19.40;82.19
80624;BME280;70269;44.768;9.600;2023-08-17T02:49:06;97622.09;;;19.34;82.79
80624;BME280;70269;44.768;9.600;2023-08-17T02:51:32;97617.44;;;19.34;82.78
80624;BME280;70269;44.768;9.600;2023-08-17T02:53:58;97620.19;;;19.39;82.42
80624;BME280;70269;44.768;9.600;2023-08-17T02:56:24;97617.19;;;19.36;82.82
80624;BME280;70269;44.768;9.600;2023-08-17T02:58:50;97615.81;;;19.38;82.82
80624;BME280;70269;44.768;9.600;2023-08-17T03:01:15;97609.81;;;19.42;82.22
80624;BME280;70269;44.768;9.600;2023-08-17T03:03:41;97613.38;;;19.42;82.61
80624;BME280;70269;44.768;9.600;2023-08-17T03:06:10;97612.00;;;19.39;82.49
80624;BME280;70269;44.768;9.600;2023-08-17T03:08:38;97608.41;;;19.34;82.68
80624;BME280;70269;44.768;9.600;2023-08-17T03:11:04;97613.63;;;19.35;82.75
80624;BME280;70269;44.768;9.600;2023-08-17T03:13:32;97602.66;;;19.35;82.92
80624;BME280;70269;44.768;9.600;2023-08-17T03:15:58;97611.47;;;19.43;83.04
80624;BME280;70269;44.768;9.600;2023-08-17T03:18:24;97605.25;;;19.52;82.37
80624;BME280;70269;44.768;9.600;2023-08-17T03:20:49;97595.16;;;19.63;81.92
80624;BME280;70269;44.768;9.600;2023-08-17T03:23:15;97596.22;;;19.57;82.58
80624;BME280;70269;44.768;9.600;2023-08-17T03:25:40;97591.53;;;19.52;82.34
80624;BME280;70269;44.768;9.600;2023-08-17T03:28:06;97590.72;;;19.57;82.25
80624;BME280;70269;44.768;9.600;2023-08-17T03:30:31;97586.38;;;19.61;82.00
80624;BME280;70269;44.768;9.600;2023-08-17T03:32:57;97574.88;;;19.64;82.56
80624;BME280;70269;44.768;9.600;2023-08-17T03:35:23;97575.16;;;19.62;82.00
80624;BME280;70269;44.768;9.600;2023-08-17T03:37:48;97575.19;;;19.67;82.19
80624;BME280;70269;44.768;9.600;2023-08-17T03:40:14;97576.53;;;19.65;82.35
80624;BME280;70269;44.768;9.600;2023-08-17T03:42:40;97573.22;;;19.63;82.32
80624;BME280;70269;44.768;9.600;2023-08-17T03:45:07;97577.63;;;19.64;81.93
80624;BME280;70269;44.768;9.600;2023-08-17T03:47:32;97583.91;;;19.64;81.86
80624;BME280;70269;44.768;9.600;2023-08-17T03:50:00;97599.50;;;19.59;81.96
80624;BME280;70269;44.768;9.600;2023-08-17T03:52:25;97586.13;;;19.62;82.16
80624;BME280;70269;44.768;9.600;2023-08-17T03:54:51;97605.56;;;19.61;82.17
80624;BME280;70269;44.768;9.600;2023-08-17T03:57:16;97615.47;;;19.67;82.06
80624;BME280;70269;44.768;9.600;2023-08-17T03:59:42;97615.44;;;19.62;82.21
80624;BME280;70269;44.768;9.600;2023-08-17T04:02:07;97622.53;;;19.63;81.95
80624;BME280;70269;44.768;9.600;2023-08-17T04:04:33;97631.81;;;19.57;82.05
80624;BME280;70269;44.768;9.600;2023-08-17T04:06:58;97635.69;;;19.56;81.77
80624;BME280;70269;44.768;9.600;2023-08-17T04:09:24;97637.59;;;19.55;82.09
80624;BME280;70269;44.768;9.600;2023-08-17T04:11:50;97637.56;;;19.50;82.67
80624;BME280;70269;44.768;9.600;2023-08-17T04:14:15;97637.59;;;19.55;82.25
80624;BME280;70269;44.768;9.600;2023-08-17T04:16:41;97637.84;;;19.54;82.34
80624;BME280;70269;44.768;9.600;2023-08-17T04:19:07;97638.09;;;19.47;82.45
80624;BME280;70269;44.768;9.600;2023-08-17T04:21:33;97638.34;;;19.46;82.80
80624;BME280;70269;44.768;9.600;2023-08-17T04:23:59;97643.84;;;19.51;82.91
80624;BME280;70269;44.768;9.600;2023-08-17T04:26:25;97646.31;;;19.47;83.11
80624;BME280;70269;44.768;9.600;2023-08-17T04:28:51;97642.69;;;19.42;83.38
80624;BME280;70269;44.768;9.600;2023-08-17T04:31:16;97650.66;;;19.43;83.28
80624;BME280;70269;44.768;9.600;2023-08-17T04:33:51;97651.47;;;19.44;83.55
80624;BME280;70269;44.768;9.600;2023-08-17T04:36:17;97653.09;;;19.45;83.10
80624;BME280;70269;44.768;9.600;2023-08-17T04:38:42;97655.81;;;19.39;83.04
80624;BME280;70269;44.768;9.600;2023-08-17T04:41:08;97661.53;;;19.33;83.11
80624;BME280;70269;44.768;9.600;2023-08-17T04:43:34;97659.00;;;19.26;83.36
80624;BME280;70269;44.768;9.600;2023-08-17T04:45:59;97662.06;;;19.30;83.92
80624;BME280;70269;44.768;9.600;2023-08-17T04:48:25;97663.44;;;19.32;83.71
80624;BME280;70269;44.768;9.600;2023-08-17T04:50:51;97667.78;;;19.28;83.81
80624;BME280;70269;44.768;9.600;2023-08-17T04:53:17;97667.22;;;19.26;83.82
80624;BME280;70269;44.768;9.600;2023-08-17T04:55:42;97665.06;;;19.28;83.51
80624;BME280;70269;44.768;9.600;2023-08-17T04:58:08;97660.69;;;19.32;83.66
80624;BME280;70269;44.768;9.600;2023-08-17T05:00:34;97662.91;;;19.35;83.36
80624;BME280;70269;44.768;9.600;2023-08-17T05:02:59;97662.38;;;19.38;83.24
80624;BME280;70269;44.768;9.600;2023-08-17T05:05:30;97658.56;;;19.39;83.08
80624;BME280;70269;44.768;9.600;2023-08-17T05:07:56;97657.59;;;19.56;82.16
80624;BME280;70269;44.768;9.600;2023-08-17T05:10:22;97649.56;;;19.96;81.14
80624;BME280;70269;44.768;9.600;2023-08-17T05:12:47;97641.72;;;20.30;79.75
80624;BME280;70269;44.768;9.600;2023-08-17T05:15:13;97639.31;;;20.44;78.79
80624;BME280;70269;44.768;9.600;2023-08-17T05:17:39;97641.56;;;20.72;77.74
80624;BME280;70269;44.768;9.600;2023-08-17T05:20:08;97641.28;;;21.04;76.30
80624;BME280;70269;44.768;9.600;2023-08-17T05:22:34;97643.19;;;21.24;75.49
80624;BME280;70269;44.768;9.600;2023-08-17T05:24:59;97646.75;;;21.45;74.56
80624;BME280;70269;44.768;9.600;2023-08-17T05:27:26;97638.41;;;21.75;73.84
80624;BME280;70269;44.768;9.600;2023-08-17T05:29:52;97639.72;;;21.93;72.80
80624;BME280;70269;44.768;9.600;2023-08-17T05:32:18;97643.56;;;22.02;72.11
80624;BME280;70269;44.768;9.600;2023-08-17T05:34:43;97649.78;;;22.23;71.72
80624;BME280;70269;44.768;9.600;2023-08-17T05:37:09;97643.06;;;22.44;70.76
80624;BME280;70269;44.768;9.600;2023-08-17T05:39:34;97646.06;;;22.47;70.02
80624;BME280;70269;44.768;9.600;2023-08-17T05:42:00;97650.75;;;22.52;70.48
80624;BME280;70269;44.768;9.600;2023-08-17T05:44:25;97643.63;;;22.46;70.56
80624;BME280;70269;44.768;9.600;2023-08-17T05:46:51;97654.00;;;22.54;70.07
80624;BME280;70269;44.768;9.600;2023-08-17T05:49:17;97649.91;;;22.51;70.12
80624;BME280;70269;44.768;9.600;2023-08-17T05:51:42;97651.44;;;22.68;69.72
80624;BME280;70269;44.768;9.600;2023-08-17T05:54:08;97654.03;;;22.93;68.61
80624;BME280;70269;44.768;9.600;2023-08-17T05:56:34;97658.13;;;23.01;68.44
80624;BME280;70269;44.768;9.600;2023-08-17T05:58:59;97644.16;;;23.21;68.26
80624;BME280;70269;44.768;9.600;2023-08-17T06:01:25;97640.78;;;23.29;67.35
80624;BME280;70269;44.768;9.600;2023-08-17T06:03:51;97638.91;;;23.53;67.23
80624;BME280;70269;44.768;9.600;2023-08-17T06:06:16;97638.28;;;23.85;65.94
80624;BME280;70269;44.768;9.600;2023-08-17T06:08:42;97642.94;;;24.08;65.03
80624;BME280;70269;44.768;9.600;2023-08-17T06:11:07;97634.16;;;24.06;64.57
80624;BME280;70269;44.768;9.600;2023-08-17T06:13:33;97627.22;;;24.09;64.69
80624;BME280;70269;44.768;9.600;2023-08-17T06:16:00;97636.50;;;24.18;65.05
80624;BME280;70269;44.768;9.600;2023-08-17T06:18:26;97624.06;;;24.39;64.37
80624;BME280;70269;44.768;9.600;2023-08-17T06:20:51;97621.59;;;24.56;63.11
80624;BME280;70269;44.768;9.600;2023-08-17T06:23:19;97616.53;;;24.64;63.37
80624;BME280;70269;44.768;9.600;2023-08-17T06:25:46;97616.91;;;24.57;63.24
80624;BME280;70269;44.768;9.600;2023-08-17T06:28:11;97627.38;;;24.60;63.31
80624;BME280;70269;44.768;9.600;2023-08-17T06:30:37;97621.94;;;24.92;62.32
80624;BME280;70269;44.768;9.600;2023-08-17T06:33:02;97625.63;;;25.02;62.01
80624;BME280;70269;44.768;9.600;2023-08-17T06:35:28;97623.47;;;24.98;62.26
80624;BME280;70269;44.768;9.600;2023-08-17T06:37:53;97619.28;;;25.01;62.19
80624;BME280;70269;44.768;9.600;2023-08-17T06:40:23;97620.78;;;24.93;61.41
80624;BME280;70269;44.768;9.600;2023-08-17T06:42:49;97615.34;;;25.21;61.86
80624;BME280;70269;44.768;9.600;2023-08-17T06:45:15;97606.88;;;25.31;61.43
80624;BME280;70269;44.768;9.600;2023-08-17T06:47:44;97606.41;;;25.43;61.61
80624;BME280;70269;44.768;9.600;2023-08-17T06:50:10;97604.75;;;25.55;60.67
80624;BME280;70269;44.768;9.600;2023-08-17T06:52:36;97605.50;;;25.74;60.66
80624;BME280;70269;44.768;9.600;2023-08-17T06:55:02;97604.19;;;25.86;59.92
80624;BME280;70269;44.768;9.600;2023-08-17T06:57:27;97610.22;;;26.15;58.93
80624;BME280;70269;44.768;9.600;2023-08-17T06:59:54;97605.69;;;26.33;58.37
80624;BME280;70269;44.768;9.600;2023-08-17T07:02:20;97603.78;;;26.55;58.28
80624;BME280;70269;44.768;9.600;2023-08-17T07:04:46;97604.84;;;26.46;57.73
80624;BME280;70269;44.768;9.600;2023-08-17T07:07:12;97610.63;;;26.72;57.83
80624;BME280;70269;44.768;9.600;2023-08-17T07:09:40;97611.09;;;26.74;56.94
80624;BME280;70269;44.768;9.600;2023-08-17T07:12:05;97609.91;;;27.02;56.48
80624;BME280;70269;44.768;9.600;2023-08-17T07:14:31;97601.06;;;27.22;55.71
80624;BME280;70269;44.768;9.600;2023-08-17T07:16:57;97602.44;;;27.33;55.13
80624;BME280;70269;44.768;9.600;2023-08-17T07:19:22;97603.44;;;27.37;55.22
80624;BME280;70269;44.768;9.600;2023-08-17T07:21:51;97619.31;;;27.46;55.18
80624;BME280;70269;44.768;9.600;2023-08-17T07:24:16;97619.06;;;27.56;54.40
80624;BME280;70269;44.768;9.600;2023-08-17T07:26:42;97612.53;;;27.52;54.61
80624;BME280;70269;44.768;9.600;2023-08-17T07:29:08;97608.50;;;27.66;53.74
80624;BME280;70269;44.768;9.600;2023-08-17T07:31:33;97616.88;;;27.84;54.11
80624;BME280;70269;44.768;9.600;2023-08-17T07:34:00;97612.50;;;27.91;53.48
80624;BME280;70269;44.768;9.600;2023-08-17T07:36:25;97611.34;;;27.84;52.80
80624;BME280;70269;44.768;9.600;2023-08-17T07:38:51;97614.66;;;27.94;52.62
80624;BME280;70269;44.768;9.600;2023-08-17T07:41:16;97610.94;;;28.07;52.43
80624;BME280;70269;44.768;9.600;2023-08-17T07:43:42;97607.88;;;28.17;51.90
80624;BME280;70269;44.768;9.600;2023-08-17T07:46:07;97606.28;;;28.34;52.44
80624;BME280;70269;44.768;9.600;2023-08-17T07:48:33;97605.31;;;28.47;50.75
80624;BME280;70269;44.768;9.600;2023-08-17T07:50:59;97607.81;;;28.57;51.47
80624;BME280;70269;44.768;9.600;2023-08-17T07:53:25;97606.97;;;28.65;50.33
80624;BME280;70269;44.768;9.600;2023-08-17T07:55:51;97610.09;;;28.89;50.98
80624;BME280;70269;44.768;9.600;2023-08-17T07:58:16;97607.47;;;29.02;50.55
80624;BME280;70269;44.768;9.600;2023-08-17T08:00:42;97604.88;;;29.05;50.45
80624;BME280;70269;44.768;9.600;2023-08-17T08:03:07;97610.25;;;29.19;50.16
80624;BME280;70269;44.768;9.600;2023-08-17T08:05:33;97599.59;;;29.21;47.91
80624;BME280;70269;44.768;9.600;2023-08-17T08:07:59;97604.81;;;29.40;48.18
80624;BME280;70269;44.768;9.600;2023-08-17T08:10:24;97606.78;;;29.30;46.80
80624;BME280;70269;44.768;9.600;2023-08-17T08:12:50;97609.38;;;29.53;48.68
80624;BME280;70269;44.768;9.600;2023-08-17T08:15:15;97614.78;;;29.32;47.05
80624;BME280;70269;44.768;9.600;2023-08-17T08:17:41;97613.13;;;28.28;48.34
80624;BME280;70269;44.768;9.600;2023-08-17T08:20:07;97613.47;;;28.35;48.24
80624;BME280;70269;44.768;9.600;2023-08-17T08:22:32;97610.34;;;28.19;47.93
80624;BME280;70269;44.768;9.600;2023-08-17T08:24:58;97607.41;;;27.85;49.90
80624;BME280;70269;44.768;9.600;2023-08-17T08:27:23;97608.91;;;27.91;48.98
80624;BME280;70269;44.768;9.600;2023-08-17T08:29:50;97614.06;;;28.14;48.76
80624;BME280;70269;44.768;9.600;2023-08-17T08:32:15;97604.06;;;28.05;49.12
80624;BME280;70269;44.768;9.600;2023-08-17T08:34:41;97599.88;;;28.16;48.88
80624;BME280;70269;44.768;9.600;2023-08-17T08:37:06;97603.59;;;28.11;49.52
80624;BME280;70269;44.768;9.600;2023-08-17T08:39:32;97598.97;;;28.55;47.93
80624;BME280;70269;44.768;9.600;2023-08-17T08:41:58;97600.47;;;28.87;46.91
80624;BME280;70269;44.768;9.600;2023-08-17T08:44:23;97595.41;;;28.80;47.12
80624;BME280;70269;44.768;9.600;2023-08-17T08:46:49;97601.56;;;28.60;48.87
80624;BME280;70269;44.768;9.600;2023-08-17T08:49:19;97609.09;;;28.42;46.46
80624;BME280;70269;44.768;9.600;2023-08-17T08:51:48;97592.78;;;28.75;47.05
80624;BME280;70269;44.768;9.600;2023-08-17T08:54:20;97593.25;;;28.69;47.80
80624;BME280;70269;44.768;9.600;2023-08-17T08:56:50;97595.69;;;29.13;45.28
80624;BME280;70269;44.768;9.600;2023-08-17T08:59:16;97589.97;;;29.18;46.09
80624;BME280;70269;44.768;9.600;2023-08-17T09:01:42;97588.28;;;29.26;45.90
80624;BME280;70269;44.768;9.600;2023-08-17T09:04:08;97595.00;;;29.42;43.67
80624;BME280;70269;44.768;9.600;2023-08-17T09:06:34;97598.06;;;29.58;43.51
80624;BME280;70269;44.768;9.600;2023-08-17T09:09:01;97591.44;;;29.80;44.04
80624;BME280;70269;44.768;9.600;2023-08-17T09:11:28;97593.84;;;29.26;43.69
80624;BME280;70269;44.768;9.600;2023-08-17T09:13:53;97593.16;;;30.01;44.44
80624;BME280;70269;44.768;9.600;2023-08-17T09:16:20;97584.19;;;29.87;42.53
80624;BME280;70269;44.768;9.600;2023-08-17T09:18:45;97584.41;;;29.73;43.48
80624;BME280;70269;44.768;9.600;2023-08-17T09:21:22;97580.09;;;29.85;43.40
80624;BME280;70269;44.768;9.600;2023-08-17T09:23:55;97578.88;;;30.03;42.81
80624;BME280;70269;44.768;9.600;2023-08-17T09:26:21;97584.16;;;30.25;41.72
80624;BME280;70269;44.768;9.600;2023-08-17T09:28:52;97586.91;;;30.34;43.04
80624;BME280;70269;44.768;9.600;2023-08-17T09:31:23;97582.97;;;30.05;42.57
80624;BME280;70269;44.768;9.600;2023-08-17T09:33:52;97580.00;;;30.10;42.01
80624;BME280;70269;44.768;9.600;2023-08-17T09:36:22;97581.25;;;29.92;42.65
80624;BME280;70269;44.768;9.600;2023-08-17T09:50:09;97574.44;;;30.10;41.67
80624;BME280;70269;44.768;9.600;2023-08-17T09:52:38;97566.19;;;29.93;41.56
80624;BME280;70269;44.768;9.600;2023-08-17T09:55:06;97574.84;;;29.83;41.58
80624;BME280;70269;44.768;9.600;2023-08-17T09:57:32;97564.00;;;29.99;42.30
80624;BME280;70269;44.768;9.600;2023-08-17T09:59:59;97561.44;;;29.85;41.99
80624;BME280;70269;44.768;9.600;2023-08-17T10:02:26;97557.09;;;30.05;41.69
80624;BME280;70269;44.768;9.600;2023-08-17T10:04:53;97553.59;;;30.17;41.52
80624;BME280;70269;44.768;9.600;2023-08-17T10:07:21;97550.56;;;30.01;41.91
80624;BME280;70269;44.768;9.600;2023-08-17T10:09:57;97553.06;;;30.23;40.95
80624;BME280;70269;44.768;9.600;2023-08-17T10:12:27;97549.97;;;29.87;40.70
80624;BME280;70269;44.768;9.600;2023-08-17T10:14:59;97545.59;;;30.06;41.47
80624;BME280;70269;44.768;9.600;2023-08-17T10:17:27;97539.31;;;30.18;40.31
80624;BME280;70269;44.768;9.600;2023-08-17T10:19:58;97529.03;;;30.10;41.85
80624;BME280;70269;44.768;9.600;2023-08-17T10:22:34;97538.22;;;30.31;40.18
80624;BME280;70269;44.768;9.600;2023-08-17T10:25:02;97531.97;;;30.34;41.15
80624;BME280;70269;44.768;9.600;2023-08-17T10:27:28;97527.94;;;30.52;41.09
80624;BME280;70269;44.768;9.600;2023-08-17T10:29:55;97529.84;;;30.31;40.39
80624;BME280;70269;44.768;9.600;2023-08-17T10:32:22;97523.00;;;30.29;40.30
80624;BME280;70269;44.768;9.600;2023-08-17T10:34:49;97528.75;;;30.53;40.89
80624;BME280;70269;44.768;9.600;2023-08-17T10:37:16;97523.09;;;30.41;40.27
80624;BME280;70269;44.768;9.600;2023-08-17T10:39:48;97527.44;;;30.30;40.99
80624;BME280;70269;44.768;9.600;2023-08-17T10:42:14;97520.16;;;30.37;40.75
80624;BME280;70269;44.768;9.600;2023-08-17T10:44:44;97513.41;;;30.38;39.80
80624;BME280;70269;44.768;9.600;2023-08-17T10:52:35;97509.81;;;30.38;40.06
80624;BME280;70269;44.768;9.600;2023-08-17T10:55:08;97511.91;;;30.20;40.80
80624;BME280;70269;44.768;9.600;2023-08-17T10:57:38;97500.63;;;30.37;40.04
80624;BME280;70269;44.768;9.600;2023-08-17T11:02:59;97496.78;;;30.50;40.44
80624;BME280;70269;44.768;9.600;2023-08-17T11:05:44;97494.28;;;30.58;40.53
80624;BME280;70269;44.768;9.600;2023-08-17T11:08:19;97495.81;;;30.46;40.17
80624;BME280;70269;44.768;9.600;2023-08-17T11:11:04;97499.34;;;30.14;40.44
80624;BME280;70269;44.768;9.600;2023-08-17T11:13:32;97489.41;;;29.75;41.33
80624;BME280;70269;44.768;9.600;2023-08-17T11:15:59;97494.97;;;29.46;42.38
80624;BME280;70269;44.768;9.600;2023-08-17T11:18:25;97499.00;;;29.19;42.56
80624;BME280;70269;44.768;9.600;2023-08-17T11:20:50;97499.03;;;29.02;43.10
80624;BME280;70269;44.768;9.600;2023-08-17T11:23:16;97499.06;;;28.93;43.13
80624;BME280;70269;44.768;9.600;2023-08-17T11:25:42;97502.03;;;28.79;43.39
80624;BME280;70269;44.768;9.600;2023-08-17T11:28:08;97505.13;;;28.69;43.93
80624;BME280;70269;44.768;9.600;2023-08-17T11:30:35;97499.06;;;28.67;44.16
80624;BME280;70269;44.768;9.600;2023-08-17T11:33:03;97489.13;;;28.58;43.99
80624;BME280;70269;44.768;9.600;2023-08-17T11:35:28;97489.28;;;28.52;43.67
80624;BME280;70269;44.768;9.600;2023-08-17T11:37:54;97496.50;;;28.45;44.38
80624;BME280;70269;44.768;9.600;2023-08-17T11:43:46;97480.63;;;28.37;44.45
80624;BME280;70269;44.768;9.600;2023-08-17T11:46:11;97479.66;;;28.33;44.87
80624;BME280;70269;44.768;9.600;2023-08-17T11:48:37;97471.47;;;28.28;44.78
80624;BME280;70269;44.768;9.600;2023-08-17T11:51:02;97474.53;;;28.09;45.18
80624;BME280;70269;44.768;9.600;2023-08-17T11:53:38;97472.44;;;28.14;45.16
80624;BME280;70269;44.768;9.600;2023-08-17T11:56:04;97477.81;;;28.02;45.56
80624;BME280;70269;44.768;9.600;2023-08-17T11:58:40;97474.56;;;28.00;45.41
80624;BME280;70269;44.768;9.600;2023-08-17T12:01:09;97463.44;;;28.00;45.76
80624;BME280;70269;44.768;9.600;2023-08-17T12:03:35;97461.31;;;27.97;46.21
80624;BME280;70269;44.768;9.600;2023-08-17T12:06:00;97470.78;;;27.96;45.75
80624;BME280;70269;44.768;9.600;2023-08-17T12:08:26;97474.69;;;27.87;46.01
80624;BME280;70269;44.768;9.600;2023-08-17T12:10:52;97477.63;;;27.90;46.02
80624;BME280;70269;44.768;9.600;2023-08-17T12:13:17;97483.16;;;27.73;46.11
80624;BME280;70269;44.768;9.600;2023-08-17T12:15:43;97478.59;;;27.68;47.00
80624;BME280;70269;44.768;9.600;2023-08-17T12:18:08;97480.69;;;27.63;46.78
80624;BME280;70269;44.768;9.600;2023-08-17T12:20:34;97468.28;;;27.52;47.32
80624;BME280;70269;44.768;9.600;2023-08-17T12:23:03;97458.22;;;27.33;48.13
80624;BME280;70269;44.768;9.600;2023-08-17T12:25:28;97472.09;;;27.33;48.47
80624;BME280;70269;44.768;9.600;2023-08-17T12:27:58;97480.53;;;27.28;49.77
80624;BME280;70269;44.768;9.600;2023-08-17T12:30:29;97496.47;;;27.14;52.01
80624;BME280;70269;44.768;9.600;2023-08-17T12:32:56;97495.22;;;26.98;52.88
80624;BME280;70269;44.768;9.600;2023-08-17T12:35:22;97483.41;;;26.62;55.67
80624;BME280;70269;44.768;9.600;2023-08-17T12:37:51;97478.16;;;26.29;57.68
80624;BME280;70269;44.768;9.600;2023-08-17T12:40:16;97458.53;;;26.03;60.20
80624;BME280;70269;44.768;9.600;2023-08-17T12:42:42;97455.81;;;25.76;61.94
80624;BME280;70269;44.768;9.600;2023-08-17T12:45:07;97447.97;;;25.42;64.39
80624;BME280;70269;44.768;9.600;2023-08-17T12:47:33;97455.25;;;25.11;66.79
80624;BME280;70269;44.768;9.600;2023-08-17T12:50:00;97458.84;;;24.79;68.95
80624;BME280;70269;44.768;9.600;2023-08-17T12:52:31;97466.03;;;24.47;70.90
80624;BME280;70269;44.768;9.600;2023-08-17T12:54:57;97464.88;;;24.35;71.40
80624;BME280;70269;44.768;9.600;2023-08-17T12:57:23;97460.72;;;24.18;71.87
80624;BME280;70269;44.768;9.600;2023-08-17T12:59:48;97482.25;;;23.98;70.98
80624;BME280;70269;44.768;9.600;2023-08-17T13:02:14;97506.41;;;23.87;73.31
80624;BME280;70269;44.768;9.600;2023-08-17T13:04:40;97505.41;;;23.78;74.56
80624;BME280;70269;44.768;9.600;2023-08-17T13:07:07;97496.66;;;23.76;75.56
80624;BME280;70269;44.768;9.600;2023-08-17T13:09:32;97490.06;;;23.72;75.43
80624;BME280;70269;44.768;9.600;2023-08-17T13:11:58;97471.59;;;23.72;76.47
80624;BME280;70269;44.768;9.600;2023-08-17T13:14:23;97484.53;;;23.72;76.39
80624;BME280;70269;44.768;9.600;2023-08-17T13:16:49;97487.91;;;23.69;76.20
80624;BME280;70269;44.768;9.600;2023-08-17T13:19:15;97510.44;;;23.76;75.01
80624;BME280;70269;44.768;9.600;2023-08-17T13:21:42;97537.16;;;23.57;73.97